West Hurley, New York
Current Conditions -  °F | °C
As of 4:53 PM on Wednesday 28 Jan 2015 (Local Time) from KPOU Reporting Station
Clear Clear  
Wind Chill: 19°   Ceiling: Unl
Heat Index: 27°   Visibility: 10mi
Dew Point:   Wind: 7mph
Humidity: 39%   Direction: 310°NW
Pressure: 30.14"   Gusts: NA
Location:  42.01°N, 74.11°W
Report Text: KPOU 282153Z AUTO 31006KT 10SM CLR M03/M15 A3014 RMK AO2 SLP206 T10281150 TSNO
Loading
Personal Weather Stations






























Interactive Weather Map New forecast layout! Learn more

10-Day Weather Forecast

Advertisements
Track Severe Weather on mobile